sensor_id;sensor_type;location;lat;lon;timestamp;P1;durP1;ratioP1;P2;durP2;ratioP2
32297;SDS011;18782;48.984;8.548;2024-03-08T00:00:09;19.00;;;11.38;;
32297;SDS011;18782;48.984;8.548;2024-03-08T00:02:42;15.27;;;9.13;;
32297;SDS011;18782;48.984;8.548;2024-03-08T00:05:11;18.38;;;12.52;;
32297;SDS011;18782;48.984;8.548;2024-03-08T00:07:39;22.38;;;12.95;;
32297;SDS011;18782;48.984;8.548;2024-03-08T00:10:08;21.75;;;12.68;;
32297;SDS011;18782;48.984;8.548;2024-03-08T00:12:39;20.98;;;12.40;;
32297;SDS011;18782;48.984;8.548;2024-03-08T00:15:08;18.58;;;11.43;;
32297;SDS011;18782;48.984;8.548;2024-03-08T00:17:37;19.20;;;13.00;;
32297;SDS011;18782;48.984;8.548;2024-03-08T00:20:07;20.48;;;12.05;;
32297;SDS011;18782;48.984;8.548;2024-03-08T00:22:36;19.50;;;12.43;;
32297;SDS011;18782;48.984;8.548;2024-03-08T00:25:04;20.55;;;12.38;;
32297;SDS011;18782;48.984;8.548;2024-03-08T00:27:35;23.15;;;12.77;;
32297;SDS011;18782;48.984;8.548;2024-03-08T00:30:03;22.65;;;12.20;;
32297;SDS011;18782;48.984;8.548;2024-03-08T00:32:31;19.73;;;12.23;;
32297;SDS011;18782;48.984;8.548;2024-03-08T00:34:59;23.20;;;13.23;;
32297;SDS011;18782;48.984;8.548;2024-03-08T00:37:29;23.75;;;13.55;;
32297;SDS011;18782;48.984;8.548;2024-03-08T00:39:57;24.17;;;12.60;;
32297;SDS011;18782;48.984;8.548;2024-03-08T00:42:25;29.63;;;15.15;;
32297;SDS011;18782;48.984;8.548;2024-03-08T00:44:52;27.35;;;14.15;;
32297;SDS011;18782;48.984;8.548;2024-03-08T00:47:20;27.35;;;14.13;;
32297;SDS011;18782;48.984;8.548;2024-03-08T00:49:48;32.60;;;15.52;;
32297;SDS011;18782;48.984;8.548;2024-03-08T00:52:16;27.58;;;14.50;;
32297;SDS011;18782;48.984;8.548;2024-03-08T00:54:46;23.95;;;13.48;;
32297;SDS011;18782;48.984;8.548;2024-03-08T00:57:13;23.75;;;12.93;;
32297;SDS011;18782;48.984;8.548;2024-03-08T00:59:41;21.83;;;12.55;;
32297;SDS011;18782;48.984;8.548;2024-03-08T01:02:09;24.23;;;13.32;;
32297;SDS011;18782;48.984;8.548;2024-03-08T01:04:37;21.40;;;13.15;;
32297;SDS011;18782;48.984;8.548;2024-03-08T01:07:05;20.73;;;13.18;;
32297;SDS011;18782;48.984;8.548;2024-03-08T01:09:33;21.77;;;12.40;;
32297;SDS011;18782;48.984;8.548;2024-03-08T01:12:02;20.52;;;12.80;;
32297;SDS011;18782;48.984;8.548;2024-03-08T01:14:29;22.25;;;13.25;;
32297;SDS011;18782;48.984;8.548;2024-03-08T01:16:57;21.73;;;12.85;;
32297;SDS011;18782;48.984;8.548;2024-03-08T01:19:25;20.25;;;12.55;;
32297;SDS011;18782;48.984;8.548;2024-03-08T01:21:53;21.63;;;13.00;;
32297;SDS011;18782;48.984;8.548;2024-03-08T01:24:23;19.48;;;12.50;;
32297;SDS011;18782;48.984;8.548;2024-03-08T01:26:51;20.85;;;12.35;;
32297;SDS011;18782;48.984;8.548;2024-03-08T01:29:20;21.85;;;13.07;;
32297;SDS011;18782;48.984;8.548;2024-03-08T01:31:48;21.33;;;13.32;;
32297;SDS011;18782;48.984;8.548;2024-03-08T01:34:18;20.98;;;12.07;;
32297;SDS011;18782;48.984;8.548;2024-03-08T01:36:46;19.98;;;11.90;;
32297;SDS011;18782;48.984;8.548;2024-03-08T01:39:14;21.15;;;12.80;;
32297;SDS011;18782;48.984;8.548;2024-03-08T01:41:43;20.02;;;12.82;;
32297;SDS011;18782;48.984;8.548;2024-03-08T01:44:11;21.20;;;13.02;;
32297;SDS011;18782;48.984;8.548;2024-03-08T01:46:43;23.05;;;12.82;;
32297;SDS011;18782;48.984;8.548;2024-03-08T01:49:11;19.30;;;12.18;;
32297;SDS011;18782;48.984;8.548;2024-03-08T01:51:40;23.98;;;13.15;;
32297;SDS011;18782;48.984;8.548;2024-03-08T01:54:09;20.48;;;12.55;;
32297;SDS011;18782;48.984;8.548;2024-03-08T01:56:39;27.70;;;15.45;;
32297;SDS011;18782;48.984;8.548;2024-03-08T01:59:07;21.50;;;13.07;;
32297;SDS011;18782;48.984;8.548;2024-03-08T02:01:34;21.02;;;12.52;;
32297;SDS011;18782;48.984;8.548;2024-03-08T02:04:03;19.75;;;12.55;;
32297;SDS011;18782;48.984;8.548;2024-03-08T02:06:33;20.15;;;12.48;;
32297;SDS011;18782;48.984;8.548;2024-03-08T02:09:01;21.98;;;13.93;;
32297;SDS011;18782;48.984;8.548;2024-03-08T02:11:32;24.45;;;14.23;;
32297;SDS011;18782;48.984;8.548;2024-03-08T02:14:01;20.65;;;12.90;;
32297;SDS011;18782;48.984;8.548;2024-03-08T02:16:28;21.67;;;11.98;;
32297;SDS011;18782;48.984;8.548;2024-03-08T02:18:56;20.30;;;12.02;;
32297;SDS011;18782;48.984;8.548;2024-03-08T02:21:25;20.73;;;12.27;;
32297;SDS011;18782;48.984;8.548;2024-03-08T02:23:53;20.38;;;12.13;;
32297;SDS011;18782;48.984;8.548;2024-03-08T02:26:21;22.77;;;13.55;;
32297;SDS011;18782;48.984;8.548;2024-03-08T02:28:49;19.35;;;11.75;;
32297;SDS011;18782;48.984;8.548;2024-03-08T02:31:17;21.55;;;12.65;;
32297;SDS011;18782;48.984;8.548;2024-03-08T02:33:45;23.30;;;12.60;;
32297;SDS011;18782;48.984;8.548;2024-03-08T02:36:14;20.27;;;12.18;;
32297;SDS011;18782;48.984;8.548;2024-03-08T02:38:44;19.52;;;12.27;;
32297;SDS011;18782;48.984;8.548;2024-03-08T02:41:12;21.88;;;13.60;;
32297;SDS011;18782;48.984;8.548;2024-03-08T02:43:39;20.88;;;12.15;;
32297;SDS011;18782;48.984;8.548;2024-03-08T02:46:07;22.00;;;12.73;;
32297;SDS011;18782;48.984;8.548;2024-03-08T02:48:34;22.40;;;12.18;;
32297;SDS011;18782;48.984;8.548;2024-03-08T02:51:02;23.42;;;13.23;;
32297;SDS011;18782;48.984;8.548;2024-03-08T02:53:31;22.55;;;13.70;;
32297;SDS011;18782;48.984;8.548;2024-03-08T02:56:00;21.65;;;12.52;;
32297;SDS011;18782;48.984;8.548;2024-03-08T02:58:28;21.58;;;12.50;;
32297;SDS011;18782;48.984;8.548;2024-03-08T03:00:56;23.02;;;12.75;;
32297;SDS011;18782;48.984;8.548;2024-03-08T03:03:24;23.02;;;12.52;;
32297;SDS011;18782;48.984;8.548;2024-03-08T03:05:53;21.42;;;12.95;;
32297;SDS011;18782;48.984;8.548;2024-03-08T03:08:21;22.42;;;12.80;;
32297;SDS011;18782;48.984;8.548;2024-03-08T03:10:50;22.45;;;12.55;;
32297;SDS011;18782;48.984;8.548;2024-03-08T03:13:19;20.02;;;12.05;;
32297;SDS011;18782;48.984;8.548;2024-03-08T03:15:46;22.40;;;12.70;;
32297;SDS011;18782;48.984;8.548;2024-03-08T03:18:14;25.52;;;13.93;;
32297;SDS011;18782;48.984;8.548;2024-03-08T03:20:42;27.77;;;15.80;;
32297;SDS011;18782;48.984;8.548;2024-03-08T03:23:10;20.02;;;12.73;;
32297;SDS011;18782;48.984;8.548;2024-03-08T03:25:42;24.52;;;13.18;;
32297;SDS011;18782;48.984;8.548;2024-03-08T03:28:10;21.08;;;12.57;;
32297;SDS011;18782;48.984;8.548;2024-03-08T03:30:42;21.13;;;13.05;;
32297;SDS011;18782;48.984;8.548;2024-03-08T03:33:12;19.90;;;12.15;;
32297;SDS011;18782;48.984;8.548;2024-03-08T03:35:42;22.80;;;12.80;;
32297;SDS011;18782;48.984;8.548;2024-03-08T03:38:10;19.90;;;11.23;;
32297;SDS011;18782;48.984;8.548;2024-03-08T03:40:40;22.10;;;12.75;;
32297;SDS011;18782;48.984;8.548;2024-03-08T03:43:08;20.25;;;12.07;;
32297;SDS011;18782;48.984;8.548;2024-03-08T03:45:38;21.60;;;11.93;;
32297;SDS011;18782;48.984;8.548;2024-03-08T03:48:09;20.33;;;11.15;;
32297;SDS011;18782;48.984;8.548;2024-03-08T03:50:38;20.38;;;12.05;;
32297;SDS011;18782;48.984;8.548;2024-03-08T03:53:07;20.92;;;12.45;;
32297;SDS011;18782;48.984;8.548;2024-03-08T03:55:36;22.60;;;12.68;;
32297;SDS011;18782;48.984;8.548;2024-03-08T03:58:07;23.00;;;12.98;;
32297;SDS011;18782;48.984;8.548;2024-03-08T04:00:36;20.95;;;11.98;;
32297;SDS011;18782;48.984;8.548;2024-03-08T04:03:04;23.42;;;12.88;;
32297;SDS011;18782;48.984;8.548;2024-03-08T04:05:34;23.58;;;13.05;;
32297;SDS011;18782;48.984;8.548;2024-03-08T04:08:02;22.02;;;13.02;;
32297;SDS011;18782;48.984;8.548;2024-03-08T04:10:30;20.98;;;12.48;;
32297;SDS011;18782;48.984;8.548;2024-03-08T04:12:58;24.23;;;12.88;;
32297;SDS011;18782;48.984;8.548;2024-03-08T04:15:25;22.58;;;12.90;;
32297;SDS011;18782;48.984;8.548;2024-03-08T04:17:53;21.88;;;12.52;;
32297;SDS011;18782;48.984;8.548;2024-03-08T04:20:21;21.98;;;12.88;;
32297;SDS011;18782;48.984;8.548;2024-03-08T04:22:50;21.80;;;12.82;;
32297;SDS011;18782;48.984;8.548;2024-03-08T04:25:17;21.95;;;12.32;;
32297;SDS011;18782;48.984;8.548;2024-03-08T04:27:46;19.10;;;11.00;;
32297;SDS011;18782;48.984;8.548;2024-03-08T04:30:15;21.35;;;12.05;;
32297;SDS011;18782;48.984;8.548;2024-03-08T04:32:43;23.60;;;12.73;;
32297;SDS011;18782;48.984;8.548;2024-03-08T04:35:11;20.83;;;12.98;;
32297;SDS011;18782;48.984;8.548;2024-03-08T04:37:39;24.08;;;12.95;;
32297;SDS011;18782;48.984;8.548;2024-03-08T04:40:08;21.55;;;11.93;;
32297;SDS011;18782;48.984;8.548;2024-03-08T04:42:37;19.73;;;11.77;;
32297;SDS011;18782;48.984;8.548;2024-03-08T04:45:08;22.10;;;11.80;;
32297;SDS011;18782;48.984;8.548;2024-03-08T04:47:37;19.77;;;11.45;;
32297;SDS011;18782;48.984;8.548;2024-03-08T04:50:05;20.65;;;12.20;;
32297;SDS011;18782;48.984;8.548;2024-03-08T04:52:35;21.75;;;12.38;;
32297;SDS011;18782;48.984;8.548;2024-03-08T04:55:03;18.45;;;11.02;;
32297;SDS011;18782;48.984;8.548;2024-03-08T04:57:33;21.67;;;12.20;;
32297;SDS011;18782;48.984;8.548;2024-03-08T05:00:01;20.35;;;12.27;;
32297;SDS011;18782;48.984;8.548;2024-03-08T05:02:28;21.95;;;12.65;;
32297;SDS011;18782;48.984;8.548;2024-03-08T05:04:57;19.67;;;11.20;;
32297;SDS011;18782;48.984;8.548;2024-03-08T05:07:24;21.60;;;12.45;;
32297;SDS011;18782;48.984;8.548;2024-03-08T05:09:52;21.75;;;11.90;;
32297;SDS011;18782;48.984;8.548;2024-03-08T05:12:19;19.33;;;11.77;;
32297;SDS011;18782;48.984;8.548;2024-03-08T05:14:50;19.45;;;10.90;;
32297;SDS011;18782;48.984;8.548;2024-03-08T05:17:17;19.20;;;12.48;;
32297;SDS011;18782;48.984;8.548;2024-03-08T05:19:45;20.98;;;11.02;;
32297;SDS011;18782;48.984;8.548;2024-03-08T05:22:13;22.58;;;12.40;;
32297;SDS011;18782;48.984;8.548;2024-03-08T05:24:41;20.80;;;11.80;;
32297;SDS011;18782;48.984;8.548;2024-03-08T05:27:08;20.98;;;12.30;;
32297;SDS011;18782;48.984;8.548;2024-03-08T05:29:36;19.25;;;11.40;;
32297;SDS011;18782;48.984;8.548;2024-03-08T05:32:06;23.55;;;12.70;;
32297;SDS011;18782;48.984;8.548;2024-03-08T05:34:34;22.33;;;11.68;;
32297;SDS011;18782;48.984;8.548;2024-03-08T05:37:02;20.52;;;12.10;;
32297;SDS011;18782;48.984;8.548;2024-03-08T05:39:29;22.55;;;12.30;;
32297;SDS011;18782;48.984;8.548;2024-03-08T05:41:57;19.73;;;10.63;;
32297;SDS011;18782;48.984;8.548;2024-03-08T05:44:25;21.45;;;11.95;;
32297;SDS011;18782;48.984;8.548;2024-03-08T05:46:55;19.70;;;12.32;;
32297;SDS011;18782;48.984;8.548;2024-03-08T05:49:24;18.63;;;11.45;;
32297;SDS011;18782;48.984;8.548;2024-03-08T05:51:52;20.13;;;11.23;;
32297;SDS011;18782;48.984;8.548;2024-03-08T05:54:20;19.67;;;11.10;;
32297;SDS011;18782;48.984;8.548;2024-03-08T05:56:51;20.48;;;11.45;;
32297;SDS011;18782;48.984;8.548;2024-03-08T05:59:19;20.15;;;10.88;;
32297;SDS011;18782;48.984;8.548;2024-03-08T06:01:49;22.80;;;12.20;;
32297;SDS011;18782;48.984;8.548;2024-03-08T06:04:17;20.65;;;11.18;;
32297;SDS011;18782;48.984;8.548;2024-03-08T06:06:46;22.25;;;11.98;;
32297;SDS011;18782;48.984;8.548;2024-03-08T06:09:18;20.95;;;12.02;;
32297;SDS011;18782;48.984;8.548;2024-03-08T06:11:50;21.15;;;12.23;;
32297;SDS011;18782;48.984;8.548;2024-03-08T06:14:19;19.95;;;11.68;;
32297;SDS011;18782;48.984;8.548;2024-03-08T06:16:46;20.92;;;12.15;;
32297;SDS011;18782;48.984;8.548;2024-03-08T06:19:16;21.85;;;12.10;;
32297;SDS011;18782;48.984;8.548;2024-03-08T06:21:43;20.65;;;11.68;;
32297;SDS011;18782;48.984;8.548;2024-03-08T06:24:13;22.83;;;11.88;;
32297;SDS011;18782;48.984;8.548;2024-03-08T06:26:41;20.80;;;11.48;;
32297;SDS011;18782;48.984;8.548;2024-03-08T06:29:09;22.90;;;11.77;;
32297;SDS011;18782;48.984;8.548;2024-03-08T06:31:36;22.27;;;11.63;;
32297;SDS011;18782;48.984;8.548;2024-03-08T06:34:05;19.63;;;11.45;;
32297;SDS011;18782;48.984;8.548;2024-03-08T06:36:34;20.70;;;11.18;;
32297;SDS011;18782;48.984;8.548;2024-03-08T06:39:04;20.67;;;12.05;;
32297;SDS011;18782;48.984;8.548;2024-03-08T06:41:37;20.88;;;12.05;;
32297;SDS011;18782;48.984;8.548;2024-03-08T06:44:06;21.98;;;11.77;;
32297;SDS011;18782;48.984;8.548;2024-03-08T06:46:35;21.20;;;12.18;;
32297;SDS011;18782;48.984;8.548;2024-03-08T06:49:02;20.27;;;11.50;;
32297;SDS011;18782;48.984;8.548;2024-03-08T06:51:30;18.77;;;11.25;;
32297;SDS011;18782;48.984;8.548;2024-03-08T06:53:58;21.85;;;11.63;;
32297;SDS011;18782;48.984;8.548;2024-03-08T06:56:26;21.13;;;12.10;;
32297;SDS011;18782;48.984;8.548;2024-03-08T06:58:55;20.80;;;12.70;;
32297;SDS011;18782;48.984;8.548;2024-03-08T07:01:23;21.60;;;12.00;;
32297;SDS011;18782;48.984;8.548;2024-03-08T07:03:50;23.42;;;13.45;;
32297;SDS011;18782;48.984;8.548;2024-03-08T07:06:19;21.98;;;12.45;;
32297;SDS011;18782;48.984;8.548;2024-03-08T07:08:47;17.35;;;11.30;;
32297;SDS011;18782;48.984;8.548;2024-03-08T07:11:15;21.55;;;12.02;;
32297;SDS011;18782;48.984;8.548;2024-03-08T07:13:45;20.70;;;12.30;;
32297;SDS011;18782;48.984;8.548;2024-03-08T07:16:14;19.40;;;12.02;;
32297;SDS011;18782;48.984;8.548;2024-03-08T07:18:42;21.13;;;11.93;;
32297;SDS011;18782;48.984;8.548;2024-03-08T07:21:10;23.27;;;13.57;;
32297;SDS011;18782;48.984;8.548;2024-03-08T07:23:38;22.85;;;11.98;;
32297;SDS011;18782;48.984;8.548;2024-03-08T07:26:32;23.33;;;12.27;;
32297;SDS011;18782;48.984;8.548;2024-03-08T07:29:00;21.33;;;12.70;;
32297;SDS011;18782;48.984;8.548;2024-03-08T07:31:29;24.83;;;13.23;;
32297;SDS011;18782;48.984;8.548;2024-03-08T07:34:10;21.23;;;12.33;;
32297;SDS011;18782;48.984;8.548;2024-03-08T07:36:38;23.08;;;12.40;;
32297;SDS011;18782;48.984;8.548;2024-03-08T07:39:06;18.33;;;11.63;;
32297;SDS011;18782;48.984;8.548;2024-03-08T07:41:38;18.65;;;11.52;;
32297;SDS011;18782;48.984;8.548;2024-03-08T07:44:07;20.05;;;11.20;;
32297;SDS011;18782;48.984;8.548;2024-03-08T07:46:36;23.90;;;12.52;;
32297;SDS011;18782;48.984;8.548;2024-03-08T07:49:04;19.17;;;11.88;;
32297;SDS011;18782;48.984;8.548;2024-03-08T07:51:32;20.08;;;12.20;;
32297;SDS011;18782;48.984;8.548;2024-03-08T07:54:01;20.35;;;12.77;;
32297;SDS011;18782;48.984;8.548;2024-03-08T07:56:31;19.63;;;11.65;;
32297;SDS011;18782;48.984;8.548;2024-03-08T07:58:58;19.98;;;12.27;;
32297;SDS011;18782;48.984;8.548;2024-03-08T08:01:26;21.15;;;12.35;;
32297;SDS011;18782;48.984;8.548;2024-03-08T08:03:55;20.58;;;13.18;;
32297;SDS011;18782;48.984;8.548;2024-03-08T08:06:23;21.63;;;13.07;;
32297;SDS011;18782;48.984;8.548;2024-03-08T08:08:51;21.90;;;12.45;;
32297;SDS011;18782;48.984;8.548;2024-03-08T08:11:19;20.77;;;12.68;;
32297;SDS011;18782;48.984;8.548;2024-03-08T08:13:47;21.08;;;12.98;;
32297;SDS011;18782;48.984;8.548;2024-03-08T08:16:15;16.67;;;11.20;;
32297;SDS011;18782;48.984;8.548;2024-03-08T08:18:43;23.05;;;12.95;;
32297;SDS011;18782;48.984;8.548;2024-03-08T08:21:13;21.27;;;12.35;;
32297;SDS011;18782;48.984;8.548;2024-03-08T08:23:41;19.55;;;11.98;;
32297;SDS011;18782;48.984;8.548;2024-03-08T08:26:09;20.42;;;12.32;;
32297;SDS011;18782;48.984;8.548;2024-03-08T08:28:37;18.40;;;11.77;;
32297;SDS011;18782;48.984;8.548;2024-03-08T08:31:07;18.45;;;12.32;;
32297;SDS011;18782;48.984;8.548;2024-03-08T08:33:35;19.73;;;12.98;;
32297;SDS011;18782;48.984;8.548;2024-03-08T08:36:03;19.38;;;12.05;;
32297;SDS011;18782;48.984;8.548;2024-03-08T08:38:33;18.67;;;10.98;;
32297;SDS011;18782;48.984;8.548;2024-03-08T08:41:01;23.45;;;12.23;;
32297;SDS011;18782;48.984;8.548;2024-03-08T08:43:29;20.10;;;11.90;;
32297;SDS011;18782;48.984;8.548;2024-03-08T08:45:57;22.70;;;12.85;;
32297;SDS011;18782;48.984;8.548;2024-03-08T08:48:24;21.90;;;12.32;;
32297;SDS011;18782;48.984;8.548;2024-03-08T08:50:52;19.10;;;12.32;;
32297;SDS011;18782;48.984;8.548;2024-03-08T08:53:20;20.58;;;12.32;;
32297;SDS011;18782;48.984;8.548;2024-03-08T08:55:49;19.30;;;12.48;;
32297;SDS011;18782;48.984;8.548;2024-03-08T08:58:17;19.30;;;11.95;;
32297;SDS011;18782;48.984;8.548;2024-03-08T09:00:45;17.33;;;11.48;;
32297;SDS011;18782;48.984;8.548;2024-03-08T09:03:13;18.10;;;11.75;;
32297;SDS011;18782;48.984;8.548;2024-03-08T09:05:43;18.48;;;11.77;;
32297;SDS011;18782;48.984;8.548;2024-03-08T09:08:11;16.73;;;11.00;;
32297;SDS011;18782;48.984;8.548;2024-03-08T09:10:40;18.23;;;11.30;;
32297;SDS011;18782;48.984;8.548;2024-03-08T09:13:09;17.27;;;11.00;;
32297;SDS011;18782;48.984;8.548;2024-03-08T09:15:49;17.70;;;11.57;;
32297;SDS011;18782;48.984;8.548;2024-03-08T09:18:19;17.65;;;11.43;;
32297;SDS011;18782;48.984;8.548;2024-03-08T09:20:46;17.67;;;11.23;;
32297;SDS011;18782;48.984;8.548;2024-03-08T09:23:14;16.67;;;10.77;;
32297;SDS011;18782;48.984;8.548;2024-03-08T09:25:43;17.95;;;11.15;;
32297;SDS011;18782;48.984;8.548;2024-03-08T09:28:14;19.35;;;11.93;;
32297;SDS011;18782;48.984;8.548;2024-03-08T09:30:42;19.17;;;11.90;;
32297;SDS011;18782;48.984;8.548;2024-03-08T09:33:22;21.15;;;11.65;;
32297;SDS011;18782;48.984;8.548;2024-03-08T09:35:50;18.67;;;11.25;;
32297;SDS011;18782;48.984;8.548;2024-03-08T09:38:19;16.80;;;10.98;;
32297;SDS011;18782;48.984;8.548;2024-03-08T09:40:47;18.63;;;10.63;;
32297;SDS011;18782;48.984;8.548;2024-03-08T09:43:16;18.85;;;10.68;;
32297;SDS011;18782;48.984;8.548;2024-03-08T09:45:47;18.33;;;11.60;;
32297;SDS011;18782;48.984;8.548;2024-03-08T09:48:17;17.23;;;10.68;;
32297;SDS011;18782;48.984;8.548;2024-03-08T09:50:46;20.17;;;12.52;;
32297;SDS011;18782;48.984;8.548;2024-03-08T09:53:14;18.10;;;11.40;;
32297;SDS011;18782;48.984;8.548;2024-03-08T09:55:43;19.63;;;10.90;;
32297;SDS011;18782;48.984;8.548;2024-03-08T09:58:12;17.33;;;10.73;;
32297;SDS011;18782;48.984;8.548;2024-03-08T10:01:19;17.30;;;10.52;;
32297;SDS011;18782;48.984;8.548;2024-03-08T10:03:48;18.50;;;11.25;;
32297;SDS011;18782;48.984;8.548;2024-03-08T10:06:16;18.02;;;10.68;;
32297;SDS011;18782;48.984;8.548;2024-03-08T10:08:49;16.15;;;10.57;;
32297;SDS011;18782;48.984;8.548;2024-03-08T10:11:18;17.88;;;10.90;;
32297;SDS011;18782;48.984;8.548;2024-03-08T10:13:46;16.73;;;10.82;;
32297;SDS011;18782;48.984;8.548;2024-03-08T10:16:15;15.27;;;10.35;;
32297;SDS011;18782;48.984;8.548;2024-03-08T10:18:46;17.73;;;11.43;;
32297;SDS011;18782;48.984;8.548;2024-03-08T10:21:13;16.95;;;10.57;;
32297;SDS011;18782;48.984;8.548;2024-03-08T10:23:43;16.75;;;10.95;;
32297;SDS011;18782;48.984;8.548;2024-03-08T10:26:11;16.75;;;11.13;;
32297;SDS011;18782;48.984;8.548;2024-03-08T10:28:41;13.70;;;9.98;;
32297;SDS011;18782;48.984;8.548;2024-03-08T10:31:10;17.17;;;10.90;;
32297;SDS011;18782;48.984;8.548;2024-03-08T10:33:40;14.52;;;10.07;;
32297;SDS011;18782;48.984;8.548;2024-03-08T10:36:09;13.88;;;9.93;;
32297;SDS011;18782;48.984;8.548;2024-03-08T10:38:39;16.00;;;10.93;;
32297;SDS011;18782;48.984;8.548;2024-03-08T10:41:09;15.85;;;10.38;;
32297;SDS011;18782;48.984;8.548;2024-03-08T10:43:42;17.95;;;11.20;;
32297;SDS011;18782;48.984;8.548;2024-03-08T10:46:30;14.00;;;9.98;;
32297;SDS011;18782;48.984;8.548;2024-03-08T10:49:08;14.05;;;9.98;;
32297;SDS011;18782;48.984;8.548;2024-03-08T10:51:45;16.10;;;10.73;;
32297;SDS011;18782;48.984;8.548;2024-03-08T10:54:15;15.52;;;10.75;;
32297;SDS011;18782;48.984;8.548;2024-03-08T10:56:43;14.48;;;10.05;;
32297;SDS011;18782;48.984;8.548;2024-03-08T10:59:11;18.58;;;10.82;;
32297;SDS011;18782;48.984;8.548;2024-03-08T11:01:40;16.42;;;10.20;;
32297;SDS011;18782;48.984;8.548;2024-03-08T11:04:08;15.40;;;10.38;;
32297;SDS011;18782;48.984;8.548;2024-03-08T11:06:42;15.15;;;10.50;;
32297;SDS011;18782;48.984;8.548;2024-03-08T11:09:27;15.20;;;10.23;;
32297;SDS011;18782;48.984;8.548;2024-03-08T11:14:52;14.60;;;10.50;;
32297;SDS011;18782;48.984;8.548;2024-03-08T11:17:21;16.67;;;10.50;;
32297;SDS011;18782;48.984;8.548;2024-03-08T11:19:55;15.90;;;10.93;;
32297;SDS011;18782;48.984;8.548;2024-03-08T11:22:29;15.68;;;10.18;;
32297;SDS011;18782;48.984;8.548;2024-03-08T11:25:01;13.77;;;9.83;;
32297;SDS011;18782;48.984;8.548;2024-03-08T11:27:30;15.82;;;10.43;;
32297;SDS011;18782;48.984;8.548;2024-03-08T11:29:59;13.85;;;9.85;;
32297;SDS011;18782;48.984;8.548;2024-03-08T11:32:37;12.48;;;9.00;;
32297;SDS011;18782;48.984;8.548;2024-03-08T11:35:06;16.10;;;10.77;;
32297;SDS011;18782;48.984;8.548;2024-03-08T11:37:36;15.30;;;10.80;;
32297;SDS011;18782;48.984;8.548;2024-03-08T11:40:11;15.52;;;10.68;;
32297;SDS011;18782;48.984;8.548;2024-03-08T11:42:43;14.50;;;10.15;;
32297;SDS011;18782;48.984;8.548;2024-03-08T11:45:14;14.02;;;9.30;;
32297;SDS011;18782;48.984;8.548;2024-03-08T11:47:44;13.88;;;9.85;;
32297;SDS011;18782;48.984;8.548;2024-03-08T11:50:13;14.75;;;10.43;;
32297;SDS011;18782;48.984;8.548;2024-03-08T11:52:42;14.73;;;9.77;;
32297;SDS011;18782;48.984;8.548;2024-03-08T11:55:11;17.00;;;10.60;;
32297;SDS011;18782;48.984;8.548;2024-03-08T11:57:40;16.35;;;10.60;;
32297;SDS011;18782;48.984;8.548;2024-03-08T12:00:14;17.40;;;10.93;;
32297;SDS011;18782;48.984;8.548;2024-03-08T12:03:00;17.17;;;10.77;;
32297;SDS011;18782;48.984;8.548;2024-03-08T12:05:29;16.85;;;10.60;;
32297;SDS011;18782;48.984;8.548;2024-03-08T12:07:59;15.77;;;10.27;;
32297;SDS011;18782;48.984;8.548;2024-03-08T12:10:27;16.00;;;10.63;;
32297;SDS011;18782;48.984;8.548;2024-03-08T12:12:56;14.88;;;10.13;;
32297;SDS011;18782;48.984;8.548;2024-03-08T12:15:27;12.55;;;9.15;;
32297;SDS011;18782;48.984;8.548;2024-03-08T12:17:56;15.27;;;10.38;;
32297;SDS011;18782;48.984;8.548;2024-03-08T12:20:24;15.70;;;10.60;;
32297;SDS011;18782;48.984;8.548;2024-03-08T12:22:53;14.15;;;10.23;;
32297;SDS011;18782;48.984;8.548;2024-03-08T12:25:27;15.43;;;10.60;;
32297;SDS011;18782;48.984;8.548;2024-03-08T12:28:06;13.90;;;10.00;;
32297;SDS011;18782;48.984;8.548;2024-03-08T12:30:37;14.75;;;10.40;;
32297;SDS011;18782;48.984;8.548;2024-03-08T12:33:13;14.50;;;10.25;;
32297;SDS011;18782;48.984;8.548;2024-03-08T12:35:41;14.85;;;10.75;;
32297;SDS011;18782;48.984;8.548;2024-03-08T12:38:20;15.90;;;9.68;;
32297;SDS011;18782;48.984;8.548;2024-03-08T12:40:54;13.27;;;9.27;;
32297;SDS011;18782;48.984;8.548;2024-03-08T12:43:23;14.20;;;10.57;;
32297;SDS011;18782;48.984;8.548;2024-03-08T12:45:51;12.30;;;9.10;;
32297;SDS011;18782;48.984;8.548;2024-03-08T12:48:19;14.13;;;9.82;;
32297;SDS011;18782;48.984;8.548;2024-03-08T12:50:47;15.98;;;10.45;;
32297;SDS011;18782;48.984;8.548;2024-03-08T12:53:17;12.27;;;9.57;;
32297;SDS011;18782;48.984;8.548;2024-03-08T12:55:45;12.73;;;9.52;;
32297;SDS011;18782;48.984;8.548;2024-03-08T12:58:14;14.27;;;9.82;;
32297;SDS011;18782;48.984;8.548;2024-03-08T13:00:42;13.85;;;10.15;;
32297;SDS011;18782;48.984;8.548;2024-03-08T13:03:10;12.15;;;9.55;;
32297;SDS011;18782;48.984;8.548;2024-03-08T13:05:38;13.00;;;9.50;;
32297;SDS011;18782;48.984;8.548;2024-03-08T13:08:08;13.18;;;9.30;;
32297;SDS011;18782;48.984;8.548;2024-03-08T13:10:39;14.05;;;10.18;;
32297;SDS011;18782;48.984;8.548;2024-03-08T13:13:09;11.98;;;9.98;;
32297;SDS011;18782;48.984;8.548;2024-03-08T13:15:40;15.30;;;10.15;;
32297;SDS011;18782;48.984;8.548;2024-03-08T13:18:08;13.32;;;9.75;;
32297;SDS011;18782;48.984;8.548;2024-03-08T13:20:37;11.85;;;9.10;;
32297;SDS011;18782;48.984;8.548;2024-03-08T13:23:13;13.38;;;9.40;;
32297;SDS011;18782;48.984;8.548;2024-03-08T13:25:41;12.45;;;9.45;;
32297;SDS011;18782;48.984;8.548;2024-03-08T13:28:09;14.40;;;10.52;;
32297;SDS011;18782;48.984;8.548;2024-03-08T13:30:38;13.90;;;10.13;;
32297;SDS011;18782;48.984;8.548;2024-03-08T13:33:07;13.85;;;10.15;;
32297;SDS011;18782;48.984;8.548;2024-03-08T13:35:36;13.05;;;9.60;;
32297;SDS011;18782;48.984;8.548;2024-03-08T13:38:04;13.93;;;10.23;;
32297;SDS011;18782;48.984;8.548;2024-03-08T13:40:35;13.77;;;9.52;;
32297;SDS011;18782;48.984;8.548;2024-03-08T13:43:03;13.75;;;10.45;;
32297;SDS011;18782;48.984;8.548;2024-03-08T13:45:31;12.35;;;9.30;;
32297;SDS011;18782;48.984;8.548;2024-03-08T13:48:01;12.00;;;9.18;;
32297;SDS011;18782;48.984;8.548;2024-03-08T13:50:31;11.88;;;9.23;;
32297;SDS011;18782;48.984;8.548;2024-03-08T13:53:00;14.15;;;10.25;;
32297;SDS011;18782;48.984;8.548;2024-03-08T13:55:28;13.73;;;10.73;;
32297;SDS011;18782;48.984;8.548;2024-03-08T13:57:57;14.55;;;10.32;;
32297;SDS011;18782;48.984;8.548;2024-03-08T14:00:25;14.43;;;10.27;;
32297;SDS011;18782;48.984;8.548;2024-03-08T14:03:00;13.63;;;10.77;;
32297;SDS011;18782;48.984;8.548;2024-03-08T14:05:31;13.40;;;10.13;;
32297;SDS011;18782;48.984;8.548;2024-03-08T14:08:01;13.85;;;11.48;;
32297;SDS011;18782;48.984;8.548;2024-03-08T14:10:29;13.27;;;10.63;;
32297;SDS011;18782;48.984;8.548;2024-03-08T14:12:58;11.25;;;9.65;;
32297;SDS011;18782;48.984;8.548;2024-03-08T14:15:26;12.55;;;10.13;;
32297;SDS011;18782;48.984;8.548;2024-03-08T14:17:53;12.65;;;10.45;;
32297;SDS011;18782;48.984;8.548;2024-03-08T14:20:23;13.18;;;10.88;;
32297;SDS011;18782;48.984;8.548;2024-03-08T14:22:52;12.10;;;9.55;;
32297;SDS011;18782;48.984;8.548;2024-03-08T14:25:21;12.00;;;10.57;;
32297;SDS011;18782;48.984;8.548;2024-03-08T14:27:50;13.65;;;10.65;;
32297;SDS011;18782;48.984;8.548;2024-03-08T14:30:20;11.68;;;9.63;;
32297;SDS011;18782;48.984;8.548;2024-03-08T14:33:00;13.50;;;9.95;;
32297;SDS011;18782;48.984;8.548;2024-03-08T14:35:30;14.18;;;9.90;;
32297;SDS011;18782;48.984;8.548;2024-03-08T14:37:58;13.45;;;11.38;;